Time;durP1;ratioP1;P1;durP2;ratioP2;P2;SDS_P1;SDS_P2;PMS_P1;PMS_P2;Temp;Humidity;BMP_temperature;BMP_pressure;BME280_temperature;BME280_humidity;BME280_pressure;Samples;Min_cycle;Max_cycle;Signal;HPM_P1;HPM_P2
2024/01/06 00:00:55;;;;;;;169.63;84.60;;;-0.30;96.60;;;;;;5071561;28;20579;-63
2024/01/06 00:03:23;;;;;;;209.03;97.37;;;-0.30;96.70;;;;;;5071473;28;20203;-62
2024/01/06 00:05:51;;;;;;;182.43;91.80;;;-0.40;97.50;;;;;;5071536;28;20664;-61
2024/01/06 00:08:20;;;;;;;169.17;81.83;;;-0.50;96.40;;;;;;5071449;28;20228;-63
2024/01/06 00:10:48;;;;;;;183.80;86.03;;;-0.70;98.00;;;;;;5071299;28;20197;-62
2024/01/06 00:13:16;;;;;;;162.03;79.83;;;-0.60;98.00;;;;;;5062237;28;20943;-66
2024/01/06 00:15:45;;;;;;;174.57;80.03;;;-0.60;96.80;;;;;;5051580;28;20209;-64
2024/01/06 00:18:14;;;;;;;149.33;76.30;;;-0.50;96.50;;;;;;5051359;28;20306;-59
2024/01/06 00:20:43;;;;;;;159.63;76.27;;;-0.60;96.70;;;;;;5050969;28;20201;-64
2024/01/06 00:23:11;;;;;;;175.47;81.57;;;-0.60;96.70;;;;;;5050995;28;20198;-63
2024/01/06 00:25:40;;;;;;;166.60;82.67;;;-0.50;96.30;;;;;;5050997;28;20205;-63
2024/01/06 00:28:08;;;;;;;175.90;79.07;;;-0.50;96.80;;;;;;5050839;28;20206;-62
2024/01/06 00:30:36;;;;;;;182.47;82.63;;;-0.40;97.20;;;;;;5050917;28;20205;-62
2024/01/06 00:33:05;;;;;;;163.47;76.77;;;-0.50;97.50;;;;;;5050918;28;20280;-60
2024/01/06 00:35:35;;;;;;;162.50;77.80;;;-0.40;97.50;;;;;;5050924;28;20197;-62
2024/01/06 00:38:03;;;;;;;167.40;77.47;;;-0.40;97.40;;;;;;5050793;28;20193;-63
2024/01/06 00:40:32;;;;;;;174.30;79.40;;;-0.40;97.30;;;;;;5081845;28;20220;-62
2024/01/06 00:43:01;;;;;;;174.03;80.10;;;-0.40;97.20;;;;;;5100307;28;20200;-61
2024/01/06 00:45:30;;;;;;;160.30;79.20;;;-0.50;98.10;;;;;;5110345;28;20669;-62
2024/01/06 00:47:59;;;;;;;161.07;76.93;;;-0.50;97.80;;;;;;5111136;28;20220;-64
2024/01/06 00:50:27;;;;;;;161.17;77.90;;;-0.60;99.00;;;;;;5111193;28;20193;-62
2024/01/06 00:52:57;;;;;;;175.43;79.33;;;-0.60;99.30;;;;;;5111054;28;20211;-62
2024/01/06 00:55:25;;;;;;;166.30;81.60;;;-0.60;99.80;;;;;;5110909;28;20224;-62
2024/01/06 00:57:54;;;;;;;162.90;75.90;;;-0.60;98.20;;;;;;5110877;28;20199;-63
2024/01/06 01:00:22;;;;;;;148.53;72.53;;;-0.50;98.30;;;;;;5111087;28;20187;-62
2024/01/06 01:02:51;;;;;;;174.73;79.03;;;-0.50;98.30;;;;;;5111024;28;20253;-62
2024/01/06 01:05:19;;;;;;;160.10;78.33;;;-0.50;99.60;;;;;;5110850;28;20208;-63
2024/01/06 01:07:47;;;;;;;176.87;82.40;;;-0.50;98.40;;;;;;5110747;28;20234;-63
2024/01/06 01:10:17;;;;;;;168.57;78.67;;;-0.60;99.10;;;;;;5110765;28;20200;-61
2024/01/06 01:12:45;;;;;;;173.50;84.10;;;-0.60;99.90;;;;;;5110262;28;20201;-62
2024/01/06 01:15:14;;;;;;;166.70;82.93;;;-0.50;99.70;;;;;;5110832;28;20200;-62
2024/01/06 01:17:42;;;;;;;183.77;87.20;;;-0.40;99.30;;;;;;5110584;28;20191;-63
2024/01/06 01:20:11;;;;;;;161.30;78.77;;;-0.30;98.50;;;;;;5110480;28;20272;-62
2024/01/06 01:22:40;;;;;;;162.43;78.30;;;-0.30;97.60;;;;;;5110634;28;20222;-64
2024/01/06 01:25:08;;;;;;;167.63;81.20;;;-0.40;98.50;;;;;;5110362;28;20689;-63
2024/01/06 01:27:40;;;;;;;173.30;84.03;;;-0.40;99.20;;;;;;5110452;28;20240;-64
2024/01/06 01:30:09;;;;;;;183.90;83.37;;;-0.40;98.70;;;;;;5110712;28;20248;-64
2024/01/06 01:32:38;;;;;;;175.60;84.50;;;-0.30;98.90;;;;;;5110327;28;20249;-63
2024/01/06 01:35:07;;;;;;;179.33;85.17;;;-0.20;97.90;;;;;;5110459;28;20195;-62
2024/01/06 01:37:36;;;;;;;180.10;86.47;;;-0.30;97.90;;;;;;5099636;28;20605;-64
2024/01/06 01:40:05;;;;;;;173.33;85.53;;;-0.30;98.40;;;;;;5089770;28;20285;-64
2024/01/06 01:42:34;;;;;;;178.47;90.07;;;-0.30;99.30;;;;;;5100211;28;20203;-63
2024/01/06 01:45:04;;;;;;;179.13;89.93;;;-0.40;99.40;;;;;;5109974;28;20601;-61
2024/01/06 01:47:32;;;;;;;183.80;91.20;;;-0.30;99.10;;;;;;5109764;28;20573;-63
2024/01/06 01:50:02;;;;;;;183.73;89.03;;;-0.30;99.40;;;;;;5109837;28;20214;-62
2024/01/06 01:52:31;;;;;;;178.17;92.33;;;-0.40;99.70;;;;;;5109827;28;20282;-62
2024/01/06 01:55:00;;;;;;;201.17;93.93;;;-0.30;99.90;;;;;;5109623;28;20201;-63
2024/01/06 01:57:29;;;;;;;195.23;95.50;;;-0.30;99.80;;;;;;5108749;28;20549;-64
2024/01/06 01:59:58;;;;;;;199.03;92.33;;;-0.30;99.20;;;;;;5109686;28;20257;-62
2024/01/06 02:02:29;;;;;;;190.77;91.53;;;-0.20;99.30;;;;;;5109695;28;20584;-64
2024/01/06 02:04:57;;;;;;;190.00;91.17;;;-0.20;99.20;;;;;;5109972;28;20625;-62
2024/01/06 02:07:26;;;;;;;183.87;89.30;;;-0.10;98.80;;;;;;5109492;28;20220;-61
2024/01/06 02:09:54;;;;;;;179.13;88.93;;;-0.10;98.40;;;;;;5109692;28;20207;-64
2024/01/06 02:12:22;;;;;;;188.10;91.00;;;-0.10;98.10;;;;;;5109635;28;20202;-63
2024/01/06 02:14:51;;;;;;;184.77;91.03;;;0.00;98.00;;;;;;5109585;28;20230;-64
2024/01/06 02:17:19;;;;;;;176.63;88.40;;;0.00;97.30;;;;;;5109651;28;20211;-65
2024/01/06 02:19:49;;;;;;;172.13;84.87;;;-0.10;98.30;;;;;;5109710;28;20199;-63
2024/01/06 02:22:19;;;;;;;150.33;73.77;;;0.00;98.60;;;;;;5109855;28;20200;-63
2024/01/06 02:24:47;;;;;;;131.43;66.83;;;0.00;99.00;;;;;;5109470;28;20220;-62
2024/01/06 02:27:16;;;;;;;134.73;63.67;;;0.00;99.90;;;;;;5109391;28;20818;-63
2024/01/06 02:29:44;;;;;;;136.27;65.40;;;-0.10;99.90;;;;;;5109380;28;20712;-63
2024/01/06 02:32:12;;;;;;;147.77;73.97;;;0.00;99.90;;;;;;5109531;28;20202;-61
2024/01/06 02:34:41;;;;;;;164.30;82.97;;;-0.10;99.90;;;;;;5109364;28;20191;-64
2024/01/06 02:37:09;;;;;;;178.70;82.67;;;-0.10;99.90;;;;;;5109360;28;20201;-63
2024/01/06 02:39:39;;;;;;;175.87;82.30;;;0.00;99.90;;;;;;5109256;28;20223;-63
2024/01/06 02:42:07;;;;;;;165.00;79.47;;;0.00;99.90;;;;;;5109415;28;20203;-63
2024/01/06 02:44:36;;;;;;;157.77;77.17;;;0.00;99.90;;;;;;5109324;28;20195;-63
2024/01/06 02:47:04;;;;;;;168.03;78.67;;;0.10;99.90;;;;;;5109147;28;20195;-62
2024/01/06 02:49:33;;;;;;;157.67;77.93;;;0.00;99.90;;;;;;5109016;28;20199;-63
2024/01/06 02:52:01;;;;;;;168.63;78.07;;;0.10;99.90;;;;;;5109366;28;20274;-63
2024/01/06 02:54:29;;;;;;;151.43;76.27;;;0.10;99.90;;;;;;5109159;28;20206;-63
2024/01/06 02:56:59;;;;;;;151.83;75.57;;;0.00;99.90;;;;;;5109086;28;20654;-64
2024/01/06 02:59:27;;;;;;;154.40;76.77;;;0.00;99.90;;;;;;5108975;28;20593;-63
2024/01/06 03:01:56;;;;;;;154.87;80.13;;;-0.10;99.90;;;;;;5109089;28;20653;-64
2024/01/06 03:04:24;;;;;;;165.33;79.60;;;-0.10;99.90;;;;;;5109237;28;20199;-61
2024/01/06 03:06:53;;;;;;;159.57;77.80;;;-0.10;99.90;;;;;;5109151;28;20237;-62
2024/01/06 03:09:22;;;;;;;159.23;78.50;;;-0.10;99.90;;;;;;5110833;28;20261;-62
2024/01/06 03:11:50;;;;;;;156.77;74.93;;;-0.10;99.90;;;;;;5113460;28;20196;-61
2024/01/06 03:14:20;;;;;;;142.57;71.00;;;-0.10;99.90;;;;;;5113308;28;20188;-63
2024/01/06 03:16:48;;;;;;;113.37;57.87;;;-0.10;99.90;;;;;;5113239;27;20196;-63
2024/01/06 03:19:17;;;;;;;107.07;53.57;;;-0.30;99.90;;;;;;5113523;27;20204;-62
2024/01/06 03:21:45;;;;;;;110.63;51.30;;;-0.60;99.90;;;;;;5113188;28;20667;-63
2024/01/06 03:24:13;;;;;;;103.60;51.07;;;-0.50;99.90;;;;;;5113315;28;20691;-63
2024/01/06 03:26:42;;;;;;;106.87;53.07;;;-0.40;99.90;;;;;;5113212;28;20201;-63
2024/01/06 03:29:10;;;;;;;105.97;51.80;;;-0.30;99.90;;;;;;5113110;28;20336;-63
2024/01/06 03:31:43;;;;;;;101.20;50.73;;;0.00;99.90;;;;;;5113319;28;20188;-63
2024/01/06 03:34:12;;;;;;;95.30;50.10;;;0.10;99.90;;;;;;5113466;28;20734;-64
2024/01/06 03:36:40;;;;;;;107.50;52.27;;;0.20;99.90;;;;;;5113277;28;20196;-62
2024/01/06 03:39:10;;;;;;;104.53;49.80;;;0.30;99.90;;;;;;5113103;28;20229;-64
2024/01/06 03:41:38;;;;;;;100.37;47.47;;;0.30;99.90;;;;;;5113076;28;20197;-61
2024/01/06 03:44:06;;;;;;;96.27;48.27;;;0.30;99.90;;;;;;5113296;28;20564;-61
2024/01/06 03:46:37;;;;;;;84.67;43.93;;;0.30;99.90;;;;;;5112712;28;20193;-62
2024/01/06 03:49:06;;;;;;;52.90;28.33;;;0.30;99.50;;;;;;5111207;28;20229;-62
2024/01/06 03:51:35;;;;;;;27.07;15.47;;;0.30;96.70;;;;;;5112290;28;20237;-61
2024/01/06 03:54:03;;;;;;;20.20;10.60;;;0.40;94.80;;;;;;5112528;28;20241;-62
2024/01/06 03:56:31;;;;;;;23.40;9.93;;;0.30;91.90;;;;;;5112272;28;20261;-62
2024/01/06 03:59:00;;;;;;;14.33;7.17;;;0.40;90.80;;;;;;5112114;28;20217;-63
2024/01/06 04:01:28;;;;;;;8.83;5.50;;;0.40;88.40;;;;;;5112225;28;20192;-61
2024/01/06 04:03:57;;;;;;;14.17;5.83;;;0.50;87.90;;;;;;5112142;28;20196;-61
2024/01/06 04:06:26;;;;;;;11.87;5.47;;;0.50;87.00;;;;;;5112177;28;20188;-62
2024/01/06 04:08:55;;;;;;;6.77;4.80;;;0.50;84.90;;;;;;5112102;28;20702;-64
2024/01/06 04:11:23;;;;;;;7.53;4.00;;;0.50;85.40;;;;;;5112051;28;20764;-62
2024/01/06 04:13:52;;;;;;;7.13;3.60;;;0.50;84.80;;;;;;5112021;28;20703;-61
2024/01/06 04:16:20;;;;;;;4.83;3.40;;;0.50;84.60;;;;;;5111823;28;20196;-61
2024/01/06 04:18:49;;;;;;;5.87;3.13;;;0.50;82.20;;;;;;5111997;28;20249;-60
2024/01/06 04:21:17;;;;;;;2.93;2.60;;;0.40;81.20;;;;;;5110647;28;20192;-60
2024/01/06 04:23:47;;;;;;;3.33;3.03;;;0.50;82.10;;;;;;5112054;28;20215;-62
2024/01/06 04:26:15;;;;;;;4.50;3.37;;;0.50;82.50;;;;;;5112008;28;20572;-63
2024/01/06 04:28:44;;;;;;;3.70;3.03;;;0.60;82.30;;;;;;5111903;28;20223;-62
2024/01/06 04:31:12;;;;;;;4.53;3.47;;;0.70;83.80;;;;;;5111837;28;20199;-62
2024/01/06 04:33:40;;;;;;;4.47;3.70;;;0.70;83.80;;;;;;5112022;28;20245;-62
2024/01/06 04:36:09;;;;;;;5.67;4.07;;;0.70;82.40;;;;;;5111624;28;20290;-62
2024/01/06 04:38:37;;;;;;;8.80;4.63;;;0.70;81.80;;;;;;5111705;28;20291;-63
2024/01/06 04:41:07;;;;;;;7.17;3.83;;;0.80;82.40;;;;;;5112005;28;20919;-61
2024/01/06 04:43:35;;;;;;;7.33;4.60;;;0.80;80.50;;;;;;5111843;28;20192;-63
2024/01/06 04:46:04;;;;;;;27.97;11.13;;;0.80;81.10;;;;;;5111547;28;20555;-63
2024/01/06 04:48:32;;;;;;;56.40;19.87;;;0.80;81.70;;;;;;5110810;28;20204;-62
2024/01/06 04:51:03;;;;;;;47.30;17.57;;;0.90;83.30;;;;;;5110755;28;20196;-63
2024/01/06 04:53:31;;;;;;;40.70;16.90;;;0.80;82.90;;;;;;5110681;28;20199;-62
2024/01/06 04:55:59;;;;;;;37.60;14.03;;;0.80;82.80;;;;;;5110614;28;20196;-63
2024/01/06 04:58:29;;;;;;;40.07;14.73;;;0.80;83.10;;;;;;5110633;28;20672;-62
2024/01/06 05:00:58;;;;;;;31.23;12.33;;;0.90;82.80;;;;;;5110327;28;20546;-63
2024/01/06 05:03:26;;;;;;;14.07;6.53;;;0.90;82.30;;;;;;5110392;28;20189;-63
2024/01/06 05:05:54;;;;;;;11.03;5.10;;;0.80;81.80;;;;;;5110338;28;20208;-61
2024/01/06 05:08:24;;;;;;;8.63;4.70;;;0.80;81.10;;;;;;5110410;28;20693;-63
2024/01/06 05:10:53;;;;;;;8.07;4.70;;;0.80;81.00;;;;;;5110923;28;20206;-72
2024/01/06 05:13:22;;;;;;;5.90;4.00;;;0.80;82.40;;;;;;5110224;28;20624;-66
2024/01/06 05:15:51;;;;;;;11.97;5.43;;;0.80;82.50;;;;;;5110659;28;20205;-63
2024/01/06 05:18:20;;;;;;;6.53;4.03;;;0.80;82.30;;;;;;5110887;28;20207;-63
2024/01/06 05:20:48;;;;;;;3.67;3.10;;;0.90;81.40;;;;;;5110607;28;20712;-62
2024/01/06 05:23:17;;;;;;;4.80;3.80;;;0.90;81.10;;;;;;5110745;28;20196;-63
2024/01/06 05:25:45;;;;;;;3.17;2.87;;;0.90;81.30;;;;;;5110410;28;20226;-64
2024/01/06 05:28:13;;;;;;;3.13;2.83;;;1.00;80.80;;;;;;5110462;28;20200;-63
2024/01/06 05:30:42;;;;;;;3.73;3.23;;;0.90;80.60;;;;;;5110462;28;20192;-64
2024/01/06 05:33:14;;;;;;;3.23;2.93;;;0.90;79.30;;;;;;5027143;28;20198;-64
2024/01/06 05:35:43;;;;;;;7.30;3.53;;;1.00;80.30;;;;;;5027592;28;20210;-63
2024/01/06 05:38:12;;;;;;;11.00;4.47;;;1.00;80.10;;;;;;5027549;28;20289;-63
2024/01/06 05:40:40;;;;;;;11.30;6.17;;;1.00;80.20;;;;;;5027166;28;20228;-60
2024/01/06 05:43:08;;;;;;;38.03;14.50;;;1.00;80.60;;;;;;5027240;28;20202;-62
2024/01/06 05:45:37;;;;;;;29.80;12.10;;;1.00;79.70;;;;;;5027394;28;20769;-63
2024/01/06 05:48:09;;;;;;;15.77;9.20;;;0.90;79.30;;;;;;5027242;28;20296;-63
2024/01/06 05:50:40;;;;;;;10.67;7.43;;;0.90;80.00;;;;;;5041636;28;20241;-62
2024/01/06 05:53:10;;;;;;;11.40;7.37;;;0.90;80.60;;;;;;5110009;28;20287;-63
2024/01/06 05:55:39;;;;;;;12.77;8.67;;;0.90;80.30;;;;;;5110009;28;20198;-62
2024/01/06 05:58:08;;;;;;;9.57;7.20;;;1.00;81.20;;;;;;5110156;28;20590;-61
2024/01/06 06:00:36;;;;;;;7.10;6.40;;;1.00;80.80;;;;;;5109883;28;20238;-62
2024/01/06 06:03:05;;;;;;;11.63;7.70;;;1.00;80.30;;;;;;5109809;28;20672;-62
2024/01/06 06:05:33;;;;;;;8.00;5.70;;;1.10;82.30;;;;;;5109718;28;20203;-62
2024/01/06 06:08:03;;;;;;;10.40;6.67;;;1.10;83.30;;;;;;5109790;28;20200;-63
2024/01/06 06:10:41;;;;;;;12.07;7.13;;;1.10;83.90;;;;;;5109808;28;20761;-61
2024/01/06 06:13:11;;;;;;;17.30;8.57;;;1.10;84.30;;;;;;5109861;28;20206;-62
2024/01/06 06:15:39;;;;;;;18.77;8.20;;;1.00;83.30;;;;;;5109569;28;20196;-60
2024/01/06 06:18:07;;;;;;;11.87;6.67;;;1.00;82.00;;;;;;5109585;28;20196;-62
2024/01/06 06:20:36;;;;;;;13.23;6.13;;;0.90;80.30;;;;;;5109505;28;20207;-62
2024/01/06 06:23:05;;;;;;;9.23;4.63;;;0.80;78.50;;;;;;5109538;28;20196;-63
2024/01/06 06:25:34;;;;;;;6.60;4.40;;;0.80;79.60;;;;;;5109757;28;20654;-62
2024/01/06 06:28:03;;;;;;;6.77;4.63;;;0.80;80.40;;;;;;5109345;28;20199;-62
2024/01/06 06:30:31;;;;;;;7.43;5.00;;;0.80;81.00;;;;;;5109348;28;20264;-61
2024/01/06 06:33:00;;;;;;;16.57;9.07;;;0.90;81.30;;;;;;5109502;28;20204;-61
2024/01/06 06:35:29;;;;;;;22.93;12.93;;;0.90;81.00;;;;;;5109446;28;20192;-65
2024/01/06 06:37:57;;;;;;;14.43;9.47;;;0.90;80.60;;;;;;5109485;28;20207;-60
2024/01/06 06:40:28;;;;;;;14.63;6.90;;;1.00;82.40;;;;;;5109501;28;20288;-62
2024/01/06 06:42:56;;;;;;;14.77;9.70;;;1.00;86.50;;;;;;5109651;28;20202;-62
2024/01/06 06:45:25;;;;;;;14.17;9.43;;;0.90;85.80;;;;;;5108843;28;20197;-61
2024/01/06 06:47:53;;;;;;;13.10;8.27;;;0.80;84.70;;;;;;5109390;28;20199;-62
2024/01/06 06:50:21;;;;;;;14.37;8.37;;;0.90;87.60;;;;;;5108955;28;20217;-62
2024/01/06 06:52:50;;;;;;;11.30;6.87;;;0.90;87.70;;;;;;5109248;28;20270;-62
2024/01/06 06:55:19;;;;;;;13.23;8.70;;;0.90;89.90;;;;;;5109331;28;20608;-61
2024/01/06 06:57:49;;;;;;;9.03;6.93;;;1.00;90.60;;;;;;5109219;28;20234;-61
2024/01/06 07:00:18;;;;;;;27.40;16.07;;;1.00;90.50;;;;;;5109094;28;20204;-62
2024/01/06 07:02:46;;;;;;;10.13;6.43;;;0.90;90.40;;;;;;5108857;28;20432;-61
2024/01/06 07:05:15;;;;;;;8.07;5.80;;;1.00;90.50;;;;;;5108841;28;20671;-62
2024/01/06 07:07:46;;;;;;;7.10;5.50;;;0.90;91.60;;;;;;5109039;28;20280;-60
2024/01/06 07:10:14;;;;;;;6.13;5.03;;;0.90;91.30;;;;;;5108742;28;20224;-61
2024/01/06 07:12:43;;;;;;;11.53;5.27;;;0.80;90.50;;;;;;5108706;28;20201;-61
2024/01/06 07:15:13;;;;;;;9.80;5.87;;;0.70;90.80;;;;;;5108708;28;20206;-63
2024/01/06 07:17:41;;;;;;;8.63;5.43;;;0.60;91.20;;;;;;5108897;28;20280;-63
2024/01/06 07:20:10;;;;;;;10.27;5.80;;;0.60;91.60;;;;;;5108613;28;20655;-62
2024/01/06 07:22:38;;;;;;;9.87;6.33;;;0.70;91.90;;;;;;5108900;28;20186;-63
2024/01/06 07:25:07;;;;;;;14.27;9.50;;;0.60;92.50;;;;;;5108701;28;20199;-61
2024/01/06 07:27:35;;;;;;;16.73;10.10;;;0.60;93.20;;;;;;5108743;28;20280;-62
2024/01/06 07:30:04;;;;;;;10.53;6.27;;;0.50;92.90;;;;;;5108611;28;20334;-62
2024/01/06 07:32:34;;;;;;;15.17;10.77;;;0.30;85.20;;;;;;5108525;28;20196;-62
2024/01/06 07:35:03;;;;;;;19.13;12.67;;;0.40;88.30;;;;;;5108623;28;20202;-61
2024/01/06 07:37:34;;;;;;;17.67;11.40;;;0.60;87.30;;;;;;5108646;28;20204;-62
2024/01/06 07:40:02;;;;;;;13.10;9.27;;;0.70;87.90;;;;;;5108567;28;20227;-63
2024/01/06 07:42:31;;;;;;;10.90;8.20;;;0.90;87.00;;;;;;5108603;28;20279;-62
2024/01/06 07:45:00;;;;;;;21.80;14.50;;;1.00;86.70;;;;;;5108527;28;20212;-61
2024/01/06 07:47:28;;;;;;;17.30;12.20;;;0.80;90.10;;;;;;5108473;28;20227;-61
2024/01/06 07:49:58;;;;;;;18.83;13.00;;;0.70;91.80;;;;;;5108318;28;20220;-62
2024/01/06 07:52:26;;;;;;;25.63;16.03;;;0.70;92.30;;;;;;5108729;28;20708;-61
2024/01/06 07:54:55;;;;;;;24.47;14.10;;;0.80;92.80;;;;;;5109296;28;20226;-62
2024/01/06 07:57:24;;;;;;;20.83;13.37;;;0.90;92.60;;;;;;5112635;28;20192;-62
2024/01/06 07:59:52;;;;;;;21.47;14.30;;;0.90;91.80;;;;;;5112282;28;20658;-61
2024/01/06 08:02:21;;;;;;;17.83;12.07;;;1.00;91.40;;;;;;5112305;28;20199;-62
2024/01/06 08:04:49;;;;;;;19.57;12.27;;;1.00;91.80;;;;;;5112394;28;20283;-61
2024/01/06 08:07:19;;;;;;;21.20;13.10;;;1.00;91.10;;;;;;5112254;28;20185;-61
2024/01/06 08:09:47;;;;;;;21.27;13.73;;;1.10;89.70;;;;;;5112277;28;20274;-62
2024/01/06 08:12:16;;;;;;;19.53;12.73;;;1.20;88.30;;;;;;5112341;28;20251;-62
2024/01/06 08:14:45;;;;;;;34.87;17.70;;;1.30;86.10;;;;;;5112162;28;20206;-62
2024/01/06 08:17:13;;;;;;;43.90;22.67;;;1.20;83.00;;;;;;5111768;28;20254;-62
2024/01/06 08:19:46;;;;;;;52.17;27.00;;;1.30;84.10;;;;;;5111970;28;20563;-63
2024/01/06 08:22:15;;;;;;;56.27;27.33;;;1.20;82.30;;;;;;5111825;28;20206;-61
2024/01/06 08:24:44;;;;;;;22.30;13.93;;;1.20;84.00;;;;;;5111692;28;20245;-62
2024/01/06 08:27:13;;;;;;;17.47;11.83;;;1.30;89.70;;;;;;5111548;28;20189;-62
2024/01/06 08:29:41;;;;;;;20.80;11.27;;;1.30;90.70;;;;;;5111616;28;20655;-62
2024/01/06 08:32:10;;;;;;;65.87;33.60;;;1.30;90.00;;;;;;5111302;28;20227;-62
2024/01/06 08:34:38;;;;;;;16.60;11.50;;;1.30;90.10;;;;;;5111503;28;20192;-62
2024/01/06 08:37:06;;;;;;;14.73;10.67;;;1.40;87.30;;;;;;5111269;28;20660;-62
2024/01/06 08:39:35;;;;;;;24.27;14.80;;;1.50;89.50;;;;;;5111178;28;20314;-63
2024/01/06 08:42:05;;;;;;;24.53;14.57;;;1.40;88.00;;;;;;5111261;28;20237;-63
2024/01/06 08:44:34;;;;;;;24.63;15.20;;;1.30;86.30;;;;;;5111305;28;20205;-63
2024/01/06 08:47:02;;;;;;;25.50;12.70;;;1.30;87.60;;;;;;5111193;28;20199;-63
2024/01/06 08:49:31;;;;;;;20.63;12.50;;;1.40;88.90;;;;;;5110821;28;20236;-63
2024/01/06 08:51:59;;;;;;;15.77;10.77;;;1.40;88.90;;;;;;5111141;28;20256;-61
2024/01/06 08:54:28;;;;;;;17.80;11.00;;;1.50;91.00;;;;;;5111131;28;20204;-62
2024/01/06 08:56:56;;;;;;;16.37;10.60;;;1.50;91.40;;;;;;5111031;28;20200;-63
2024/01/06 08:59:26;;;;;;;15.87;9.57;;;1.50;91.50;;;;;;5111111;28;20196;-63
2024/01/06 09:01:55;;;;;;;34.97;23.07;;;1.60;90.70;;;;;;5110933;28;20284;-62
2024/01/06 09:04:24;;;;;;;42.43;26.70;;;1.50;91.30;;;;;;5111253;28;20193;-61
2024/01/06 09:06:52;;;;;;;47.60;29.97;;;1.50;89.60;;;;;;5110102;28;20295;-62
2024/01/06 09:09:20;;;;;;;45.37;27.50;;;1.50;89.90;;;;;;5110782;28;20250;-64
2024/01/06 09:11:49;;;;;;;47.10;27.17;;;1.60;89.30;;;;;;5110472;28;20914;-62
2024/01/06 09:14:18;;;;;;;48.13;26.13;;;1.60;88.80;;;;;;5110793;28;20189;-64
2024/01/06 09:16:47;;;;;;;50.43;28.40;;;1.60;90.30;;;;;;5110597;28;20194;-62
2024/01/06 09:19:16;;;;;;;49.47;29.10;;;1.60;90.60;;;;;;5110624;28;20196;-63
2024/01/06 09:21:44;;;;;;;47.00;26.80;;;1.60;91.60;;;;;;5110479;28;20739;-62
2024/01/06 09:24:13;;;;;;;51.30;30.93;;;1.80;90.80;;;;;;5110475;28;20296;-63
2024/01/06 09:26:41;;;;;;;54.37;36.63;;;1.70;84.70;;;;;;5110446;28;20571;-63
2024/01/06 09:29:09;;;;;;;70.70;49.13;;;1.90;84.60;;;;;;5110300;28;20209;-62
2024/01/06 09:31:40;;;;;;;123.20;76.43;;;2.00;86.80;;;;;;5110073;28;20583;-62
2024/01/06 09:34:12;;;;;;;35.13;24.43;;;2.20;82.00;;;;;;5110548;28;20197;-62
2024/01/06 09:36:40;;;;;;;24.13;16.00;;;2.30;76.30;;;;;;5110352;28;20300;-63
2024/01/06 09:39:09;;;;;;;21.47;13.27;;;2.40;76.30;;;;;;5110124;28;20332;-63
2024/01/06 09:41:37;;;;;;;15.77;11.07;;;2.40;76.30;;;;;;5110011;28;20196;-61
2024/01/06 09:44:06;;;;;;;16.60;11.53;;;2.30;75.30;;;;;;5110086;28;20196;-63
2024/01/06 09:46:37;;;;;;;20.00;13.57;;;2.40;75.20;;;;;;5109927;28;20708;-61
2024/01/06 09:49:06;;;;;;;29.80;17.63;;;2.40;73.10;;;;;;5110175;28;20252;-63
2024/01/06 09:51:40;;;;;;;30.77;20.33;;;2.50;73.70;;;;;;5109901;28;20303;-63
2024/01/06 09:54:10;;;;;;;44.37;27.63;;;2.60;73.60;;;;;;5109972;28;20195;-62
2024/01/06 09:56:40;;;;;;;47.67;31.13;;;2.60;73.00;;;;;;5109732;28;20254;-63
2024/01/06 09:59:09;;;;;;;27.87;18.97;;;2.50;73.30;;;;;;5109970;28;20193;-62
2024/01/06 10:01:37;;;;;;;15.30;10.93;;;2.50;73.80;;;;;;5109519;28;20202;-62
2024/01/06 10:04:05;;;;;;;20.60;13.53;;;2.40;75.70;;;;;;5109851;28;20190;-60
2024/01/06 10:06:34;;;;;;;36.57;21.50;;;2.40;77.60;;;;;;5109611;28;20193;-63
2024/01/06 10:09:05;;;;;;;52.83;30.30;;;2.40;78.50;;;;;;5109634;28;20194;-62
2024/01/06 10:11:33;;;;;;;59.53;35.27;;;2.40;80.50;;;;;;5109731;28;20714;-62
2024/01/06 10:14:02;;;;;;;50.00;28.93;;;2.40;82.80;;;;;;5109453;28;20279;-63
2024/01/06 10:16:31;;;;;;;44.77;26.03;;;2.30;84.10;;;;;;5109366;28;20201;-62
2024/01/06 10:18:59;;;;;;;56.70;31.53;;;2.30;86.80;;;;;;5108319;28;20212;-62
2024/01/06 10:21:28;;;;;;;70.50;38.83;;;2.40;85.50;;;;;;5109406;28;20235;-62
2024/01/06 10:23:56;;;;;;;66.73;37.53;;;2.40;86.00;;;;;;5109583;28;20583;-63
2024/01/06 10:26:26;;;;;;;54.30;32.53;;;2.40;88.00;;;;;;5109535;28;20213;-61
2024/01/06 10:28:54;;;;;;;39.00;23.47;;;2.40;89.70;;;;;;5109517;28;20246;-63
2024/01/06 10:31:23;;;;;;;36.07;21.17;;;2.40;89.00;;;;;;5108939;28;20218;-63
2024/01/06 10:33:51;;;;;;;41.20;22.27;;;2.40;90.50;;;;;;5108843;28;20285;-63
2024/01/06 10:36:20;;;;;;;32.63;19.37;;;2.40;90.20;;;;;;5109409;28;20200;-63
2024/01/06 10:38:48;;;;;;;27.93;15.97;;;2.30;90.70;;;;;;5108958;28;20269;-63
2024/01/06 10:41:18;;;;;;;24.60;15.30;;;2.50;90.30;;;;;;5109351;28;20203;-63
2024/01/06 10:43:48;;;;;;;29.47;18.63;;;2.50;89.50;;;;;;5108991;28;20232;-63
2024/01/06 10:46:19;;;;;;;25.73;16.37;;;2.40;89.40;;;;;;5090150;28;20615;-61
2024/01/06 10:48:48;;;;;;;25.63;14.50;;;2.40;90.70;;;;;;5109054;28;20210;-62
2024/01/06 10:51:17;;;;;;;26.77;16.63;;;2.50;90.70;;;;;;5108686;28;20677;-63
2024/01/06 10:53:45;;;;;;;26.20;15.07;;;2.40;90.70;;;;;;5108969;28;20194;-63
2024/01/06 10:56:13;;;;;;;26.13;14.87;;;2.50;90.50;;;;;;5109033;28;20261;-62
2024/01/06 10:58:49;;;;;;;26.57;17.73;;;2.50;90.20;;;;;;5108846;28;20200;-63
2024/01/06 11:01:22;;;;;;;28.30;19.17;;;2.50;90.00;;;;;;5108918;28;20203;-64
2024/01/06 11:03:54;;;;;;;43.20;25.13;;;2.60;87.50;;;;;;5108663;28;20198;-63
2024/01/06 11:06:24;;;;;;;40.80;23.20;;;2.70;87.00;;;;;;5108833;28;20214;-63
2024/01/06 11:09:00;;;;;;;35.87;17.27;;;2.70;85.00;;;;;;5108660;28;20209;-63
2024/01/06 11:11:30;;;;;;;27.17;16.93;;;2.70;84.40;;;;;;5108795;28;20275;-61
2024/01/06 11:14:21;;;;;;;25.63;14.63;;;2.80;83.70;;;;;;5108651;28;20228;-63
2024/01/06 11:16:49;;;;;;;61.47;29.97;;;2.80;83.30;;;;;;5108575;28;20207;-63
2024/01/06 11:19:44;;;;;;;76.07;41.77;;;2.80;81.10;;;;;;5108789;28;20244;-62
2024/01/06 11:22:21;;;;;;;85.47;38.90;;;2.90;81.50;;;;;;5108776;28;20288;-61
2024/01/06 11:24:49;;;;;;;87.43;41.23;;;3.00;81.30;;;;;;5108680;28;20565;-63
2024/01/06 11:27:22;;;;;;;99.37;50.73;;;3.00;80.60;;;;;;5108676;28;20198;-61
2024/01/06 11:29:54;;;;;;;47.37;28.30;;;3.10;79.50;;;;;;5109118;28;20221;-62
2024/01/06 11:32:28;;;;;;;38.17;26.63;;;3.10;76.50;;;;;;5112543;28;20221;-62
2024/01/06 11:35:05;;;;;;;27.50;18.97;;;3.10;76.30;;;;;;5113001;28;20201;-64
2024/01/06 11:37:51;;;;;;;25.10;17.03;;;3.10;75.40;;;;;;5112610;28;20213;-61
2024/01/06 11:40:25;;;;;;;21.13;14.93;;;3.20;74.20;;;;;;5112510;28;20234;-63
2024/01/06 11:43:05;;;;;;;19.57;10.90;;;3.20;74.00;;;;;;5112640;28;20204;-62
2024/01/06 11:45:35;;;;;;;9.07;7.40;;;3.20;72.00;;;;;;5112519;28;20668;-62
2024/01/06 11:48:05;;;;;;;9.80;7.10;;;3.20;70.60;;;;;;5112708;28;20210;-62
2024/01/06 11:50:35;;;;;;;28.80;16.53;;;3.00;70.50;;;;;;5112231;28;20603;-63
2024/01/06 11:53:05;;;;;;;36.30;17.70;;;3.00;70.30;;;;;;5112288;28;20223;-63
2024/01/06 11:55:34;;;;;;;28.70;17.27;;;3.10;70.70;;;;;;5112221;28;20295;-61
2024/01/06 11:58:04;;;;;;;15.23;9.00;;;3.20;71.20;;;;;;5112502;28;20198;-62
2024/01/06 12:00:36;;;;;;;9.70;7.70;;;3.30;68.70;;;;;;5112220;28;20300;-62
2024/01/06 12:03:05;;;;;;;9.53;6.63;;;3.20;69.60;;;;;;5112225;28;20206;-63
2024/01/06 12:05:33;;;;;;;18.67;10.13;;;3.30;68.60;;;;;;5112294;28;20216;-62
2024/01/06 12:08:06;;;;;;;26.47;13.97;;;3.20;69.60;;;;;;5112150;28;20692;-63
2024/01/06 12:10:35;;;;;;;30.83;16.13;;;3.30;68.90;;;;;;5112065;28;20230;-63
2024/01/06 12:13:05;;;;;;;27.97;15.10;;;3.40;69.50;;;;;;5112081;28;20231;-63
2024/01/06 12:15:37;;;;;;;24.10;14.20;;;3.30;68.40;;;;;;5112081;28;20961;-63
2024/01/06 12:18:07;;;;;;;17.03;10.93;;;3.30;68.60;;;;;;5111554;28;20275;-60
2024/01/06 12:20:39;;;;;;;12.43;7.83;;;3.30;67.60;;;;;;5111760;28;20192;-63
2024/01/06 12:23:07;;;;;;;21.63;15.20;;;3.30;67.40;;;;;;5111794;28;20247;-62
2024/01/06 12:25:36;;;;;;;14.33;7.90;;;3.30;66.50;;;;;;5111880;28;20203;-63
2024/01/06 12:28:07;;;;;;;11.20;6.13;;;3.30;67.00;;;;;;5092882;28;20214;-62
2024/01/06 12:30:37;;;;;;;13.30;8.27;;;3.30;67.40;;;;;;5111737;28;20227;-62
2024/01/06 12:33:05;;;;;;;94.97;36.57;;;3.30;68.20;;;;;;5111495;28;20218;-63
2024/01/06 12:35:35;;;;;;;24.37;13.53;;;3.30;67.60;;;;;;5111685;28;20198;-62
2024/01/06 12:38:05;;;;;;;24.73;11.97;;;3.30;66.60;;;;;;5111806;28;20199;-62
2024/01/06 12:40:38;;;;;;;122.83;51.13;;;3.20;66.30;;;;;;5111531;28;20252;-62
2024/01/06 12:43:06;;;;;;;71.57;35.27;;;3.20;68.20;;;;;;5110493;28;20188;-62
2024/01/06 12:45:37;;;;;;;39.67;19.90;;;3.20;67.30;;;;;;5111354;28;20659;-62